createdAt,value
2023-04-11T00:00:26.966Z,19.79
2023-04-11T00:01:27.172Z,19.80
2023-04-11T00:02:27.143Z,19.79
2023-04-11T00:03:27.263Z,19.79
2023-04-11T00:04:27.160Z,19.79
2023-04-11T00:05:27.050Z,19.79
2023-04-11T00:06:27.074Z,19.79
2023-04-11T00:07:27.077Z,19.78
2023-04-11T00:08:27.096Z,19.79
2023-04-11T00:09:27.107Z,19.79
2023-04-11T00:10:27.140Z,19.79
2023-04-11T00:11:27.144Z,19.78
2023-04-11T00:12:27.164Z,19.78
2023-04-11T00:13:27.194Z,19.78
2023-04-11T00:14:27.188Z,19.78
2023-04-11T00:15:27.198Z,19.79
2023-04-11T00:16:27.351Z,19.79
2023-04-11T00:17:27.260Z,19.78
2023-04-11T00:18:27.258Z,19.79
2023-04-11T00:19:27.265Z,19.79
2023-04-11T00:20:27.291Z,19.79
2023-04-11T00:21:27.300Z,19.79
2023-04-11T00:22:27.331Z,19.79
2023-04-11T00:23:27.334Z,19.80
2023-04-11T00:24:27.366Z,19.80
2023-04-11T00:25:27.443Z,19.80
2023-04-11T00:26:27.396Z,19.79
2023-04-11T00:27:27.417Z,19.80
2023-04-11T00:28:27.691Z,19.80
2023-04-11T00:29:27.452Z,19.81
2023-04-11T00:30:27.454Z,19.81
2023-04-11T00:31:27.474Z,19.81
2023-04-11T00:32:27.524Z,19.82
2023-04-11T00:33:27.483Z,19.82
2023-04-11T00:34:27.522Z,19.83
2023-04-11T00:35:27.531Z,19.83
2023-04-11T00:36:27.684Z,19.84
2023-04-11T00:37:27.567Z,19.83
2023-04-11T00:38:27.577Z,19.83
2023-04-11T00:39:27.636Z,19.84
2023-04-11T00:40:27.576Z,19.84
2023-04-11T00:41:27.623Z,19.85
2023-04-11T00:42:27.659Z,19.85
2023-04-11T00:43:27.647Z,19.85
2023-04-11T00:44:27.636Z,19.85
2023-04-11T00:45:27.699Z,19.86
2023-04-11T00:46:27.913Z,19.85
2023-04-11T00:47:27.719Z,19.86
2023-04-11T00:48:27.658Z,19.86
2023-04-11T00:49:27.669Z,19.87
2023-04-11T00:50:27.723Z,19.87
2023-04-11T00:51:27.679Z,19.88
2023-04-11T00:52:27.694Z,19.87
2023-04-11T00:53:27.700Z,19.87
2023-04-11T00:54:27.703Z,19.88
2023-04-11T00:55:27.735Z,19.88
2023-04-11T00:56:27.722Z,19.88
2023-04-11T00:57:27.727Z,19.89
2023-04-11T00:58:27.747Z,19.89
2023-04-11T00:59:27.751Z,19.89
2023-04-11T01:00:27.752Z,19.89
2023-04-11T01:01:27.810Z,19.89
2023-04-11T01:02:27.911Z,19.90
2023-04-11T01:03:27.893Z,19.90
2023-04-11T01:04:27.789Z,19.90
2023-04-11T01:05:27.811Z,19.90
2023-04-11T01:06:27.829Z,19.90
2023-04-11T01:07:27.816Z,19.90
2023-04-11T01:08:27.866Z,19.90
2023-04-11T01:09:27.841Z,19.90
2023-04-11T01:10:27.831Z,19.90
2023-04-11T01:11:27.833Z,19.91
2023-04-11T01:12:28.211Z,19.91
2023-04-11T01:13:28.687Z,19.92
2023-04-11T01:14:27.850Z,19.92
2023-04-11T01:15:27.869Z,19.92
2023-04-11T01:16:27.877Z,19.93
2023-04-11T01:17:27.917Z,19.92
2023-04-11T01:18:27.868Z,19.93
2023-04-11T01:19:27.866Z,19.93
2023-04-11T01:20:27.882Z,19.93
2023-04-11T01:21:27.873Z,19.93
2023-04-11T01:22:27.889Z,19.94
2023-04-11T01:23:27.872Z,19.94
2023-04-11T01:24:27.876Z,19.93
2023-04-11T01:25:27.886Z,19.94
2023-04-11T01:26:27.880Z,19.94
2023-04-11T01:27:27.876Z,19.94
2023-04-11T01:28:27.875Z,19.95
2023-04-11T01:29:27.946Z,19.95
2023-04-11T01:30:27.899Z,19.95
2023-04-11T01:31:27.899Z,19.94
2023-04-11T01:32:27.903Z,19.95
2023-04-11T01:33:27.863Z,19.96
2023-04-11T01:34:27.869Z,19.95
2023-04-11T01:35:27.863Z,19.95
2023-04-11T01:36:27.859Z,19.96
2023-04-11T01:37:27.862Z,19.95
2023-04-11T01:38:27.871Z,19.96
2023-04-11T01:39:27.862Z,19.97
2023-04-11T01:40:27.874Z,19.96
2023-04-11T01:41:27.866Z,19.97
2023-04-11T01:42:27.850Z,19.96
2023-04-11T01:43:27.855Z,19.97
2023-04-11T01:44:27.846Z,19.97
2023-04-11T01:45:27.836Z,19.96
2023-04-11T01:46:27.836Z,19.97
2023-04-11T01:47:27.897Z,19.97
2023-04-11T01:48:27.940Z,19.97
2023-04-11T01:49:27.826Z,19.97
2023-04-11T01:50:27.826Z,19.98
2023-04-11T01:51:27.815Z,19.98
2023-04-11T01:52:27.815Z,19.97
2023-04-11T01:53:27.810Z,19.98
2023-04-11T01:54:27.818Z,19.98
2023-04-11T01:55:27.817Z,19.98
2023-04-11T01:56:27.805Z,19.98
2023-04-11T01:57:27.792Z,19.99
2023-04-11T01:58:27.800Z,19.98
2023-04-11T01:59:27.797Z,19.99
2023-04-11T02:00:27.803Z,19.99
2023-04-11T02:01:27.839Z,19.99
2023-04-11T02:02:27.948Z,19.99
2023-04-11T02:03:28.044Z,19.99
2023-04-11T02:04:27.931Z,19.99
2023-04-11T02:05:27.772Z,19.99
2023-04-11T02:06:27.786Z,19.99
2023-04-11T02:07:27.776Z,19.99
2023-04-11T02:08:27.773Z,19.99
2023-04-11T02:09:27.795Z,19.99
2023-04-11T02:10:27.783Z,19.99
2023-04-11T02:11:27.788Z,20.00
2023-04-11T02:12:27.785Z,19.99
2023-04-11T02:13:27.816Z,20.00
2023-04-11T02:14:27.789Z,19.99
2023-04-11T02:15:27.822Z,20.00
2023-04-11T02:16:27.766Z,20.00
2023-04-11T02:17:27.809Z,20.00
2023-04-11T02:18:27.782Z,20.00
2023-04-11T02:19:27.792Z,19.99
2023-04-11T02:20:27.831Z,20.01
2023-04-11T02:21:27.768Z,20.00
2023-04-11T02:22:27.838Z,20.00
2023-04-11T02:23:27.788Z,19.99
2023-04-11T02:24:27.758Z,20.00
2023-04-11T02:25:27.774Z,20.00
2023-04-11T02:26:27.791Z,20.00
2023-04-11T02:27:27.803Z,20.01
2023-04-11T02:28:27.888Z,20.00
2023-04-11T02:29:27.717Z,20.01
2023-04-11T02:30:27.719Z,20.01
2023-04-11T02:31:27.787Z,20.01
2023-04-11T02:32:27.756Z,20.01
2023-04-11T02:33:27.706Z,20.01
2023-04-11T02:34:27.696Z,20.01
2023-04-11T02:35:27.701Z,20.01
2023-04-11T02:36:27.697Z,20.02
2023-04-11T02:37:27.691Z,20.01
2023-04-11T02:38:27.715Z,20.01
2023-04-11T02:39:27.678Z,20.02
2023-04-11T02:40:27.685Z,20.02
2023-04-11T02:41:27.676Z,20.02
2023-04-11T02:42:27.673Z,20.02
2023-04-11T02:43:27.670Z,20.02
2023-04-11T02:44:28.230Z,20.02
2023-04-11T02:45:27.647Z,20.02
2023-04-11T02:46:27.656Z,20.02
2023-04-11T02:47:27.697Z,20.02
2023-04-11T02:48:27.643Z,20.02
2023-04-11T02:49:27.639Z,20.02
2023-04-11T02:50:27.632Z,20.03
2023-04-11T02:51:27.614Z,20.02
2023-04-11T02:52:27.594Z,20.02
2023-04-11T02:53:27.584Z,20.03
2023-04-11T02:54:27.576Z,20.03
2023-04-11T02:55:27.567Z,20.03
2023-04-11T02:56:27.553Z,20.03
2023-04-11T02:57:27.556Z,20.02
2023-04-11T02:58:27.703Z,20.02
2023-04-11T02:59:27.551Z,20.02
2023-04-11T03:00:27.534Z,20.03
2023-04-11T03:01:27.541Z,20.03
2023-04-11T03:02:27.686Z,20.03
2023-04-11T03:03:27.588Z,20.03
2023-04-11T03:04:27.538Z,20.03
2023-04-11T03:05:27.496Z,20.03
2023-04-11T03:06:27.493Z,20.03
2023-04-11T03:07:27.475Z,20.03
2023-04-11T03:08:27.469Z,20.03
2023-04-11T03:09:27.470Z,20.03
2023-04-11T03:10:27.455Z,20.03
2023-04-11T03:11:27.446Z,20.03
2023-04-11T03:12:27.437Z,20.03
2023-04-11T03:13:27.427Z,20.03
2023-04-11T03:14:27.416Z,20.03
2023-04-11T03:15:27.404Z,20.03
2023-04-11T03:16:27.404Z,20.04
2023-04-11T03:17:28.272Z,20.03
2023-04-11T03:18:27.373Z,20.03
2023-04-11T03:19:27.360Z,20.03
2023-04-11T03:20:27.346Z,20.03
2023-04-11T03:21:27.346Z,20.03
2023-04-11T03:22:27.345Z,20.03
2023-04-11T03:23:27.316Z,20.03
2023-04-11T03:24:27.300Z,20.03
2023-04-11T03:25:27.298Z,20.03
2023-04-11T03:26:27.344Z,20.03
2023-04-11T03:27:27.292Z,20.03
2023-04-11T03:28:27.434Z,20.03
2023-04-11T03:29:27.269Z,20.04
2023-04-11T03:30:27.273Z,20.03
2023-04-11T03:31:27.325Z,20.03
2023-04-11T03:32:27.282Z,20.04
2023-04-11T03:33:27.243Z,20.03
2023-04-11T03:34:27.227Z,20.04
2023-04-11T03:35:27.215Z,20.04
2023-04-11T03:36:27.207Z,20.03
2023-04-11T03:37:27.199Z,20.03
2023-04-11T03:38:27.194Z,20.04
2023-04-11T03:39:27.202Z,20.04
2023-04-11T03:40:27.171Z,20.04
2023-04-11T03:41:27.179Z,20.04
2023-04-11T03:42:27.160Z,20.04
2023-04-11T03:43:27.168Z,20.05
2023-04-11T03:44:27.140Z,20.05
2023-04-11T03:45:27.137Z,20.05
2023-04-11T03:46:27.143Z,20.04
2023-04-11T03:47:27.148Z,20.05
2023-04-11T03:48:27.127Z,20.05
2023-04-11T03:49:27.120Z,20.04
2023-04-11T03:50:27.107Z,20.05
2023-04-11T03:51:27.100Z,20.05
2023-04-11T03:52:27.090Z,20.05
2023-04-11T03:53:27.081Z,20.05
2023-04-11T03:54:27.052Z,20.05
2023-04-11T03:55:27.039Z,20.05
2023-04-11T03:56:27.037Z,20.05
2023-04-11T03:57:27.169Z,20.05
2023-04-11T03:58:27.015Z,20.05
2023-04-11T03:59:27.001Z,20.05
2023-04-11T04:00:26.993Z,20.05
2023-04-11T04:01:26.977Z,20.05
2023-04-11T04:02:27.041Z,20.05
2023-04-11T04:03:27.162Z,20.05
2023-04-11T04:04:27.009Z,20.05
2023-04-11T04:05:26.951Z,20.05
2023-04-11T04:06:26.958Z,20.05
2023-04-11T04:07:26.936Z,20.05
2023-04-11T04:08:26.934Z,20.05
2023-04-11T04:09:27.013Z,20.05
2023-04-11T04:10:26.901Z,20.05
2023-04-11T04:11:26.905Z,20.05
2023-04-11T04:12:26.888Z,20.05
2023-04-11T04:13:26.888Z,20.05
2023-04-11T04:14:26.875Z,20.06
2023-04-11T04:15:26.860Z,20.05
2023-04-11T04:16:26.862Z,20.06
2023-04-11T04:17:26.859Z,20.05
2023-04-11T04:18:26.835Z,20.05
2023-04-11T04:19:26.813Z,20.05
2023-04-11T04:20:26.808Z,20.04
2023-04-11T04:21:26.882Z,20.05
2023-04-11T04:22:26.785Z,20.06
2023-04-11T04:23:26.800Z,20.05
2023-04-11T04:24:26.758Z,20.05
2023-04-11T04:25:26.753Z,20.05
2023-04-11T04:26:26.741Z,20.05
2023-04-11T04:27:26.872Z,20.05
2023-04-11T04:28:26.715Z,20.05
2023-04-11T04:29:26.697Z,20.06
2023-04-11T04:30:26.688Z,20.06
2023-04-11T04:31:26.687Z,20.06
2023-04-11T04:32:26.688Z,20.06
2023-04-11T04:33:27.657Z,20.07
2023-04-11T04:34:26.654Z,20.06
2023-04-11T04:35:26.706Z,20.06
2023-04-11T04:36:26.616Z,20.05
2023-04-11T04:37:26.608Z,20.06
2023-04-11T04:38:26.609Z,20.06
2023-04-11T04:39:26.596Z,20.06
2023-04-11T04:40:26.591Z,20.06
2023-04-11T04:41:26.596Z,20.06
2023-04-11T04:42:26.581Z,20.06
2023-04-11T04:43:26.573Z,20.06
2023-04-11T04:44:26.560Z,20.06
2023-04-11T04:45:26.669Z,20.06
2023-04-11T04:46:26.536Z,20.06
2023-04-11T04:47:26.548Z,20.05
2023-04-11T04:48:26.511Z,20.06
2023-04-11T04:49:26.504Z,20.06
2023-04-11T04:50:26.490Z,20.06
2023-04-11T04:51:26.489Z,20.07
2023-04-11T04:52:26.478Z,20.06
2023-04-11T04:53:26.465Z,20.07
2023-04-11T04:54:26.437Z,20.07
2023-04-11T04:55:26.422Z,20.07
2023-04-11T04:56:26.430Z,20.07
2023-04-11T04:57:26.571Z,20.06
2023-04-11T04:58:26.418Z,20.06
2023-04-11T04:59:26.400Z,20.07
2023-04-11T05:00:26.380Z,20.07
2023-04-11T05:01:26.471Z,20.07
2023-04-11T05:02:26.612Z,20.07
2023-04-11T05:03:26.466Z,20.07
2023-04-11T05:04:26.423Z,20.07
2023-04-11T05:05:26.325Z,20.07
2023-04-11T05:06:26.305Z,20.07
2023-04-11T05:07:26.305Z,20.07
2023-04-11T05:08:26.286Z,20.07
2023-04-11T05:09:26.274Z,20.07
2023-04-11T05:10:26.311Z,20.07
2023-04-11T05:11:26.251Z,20.07
2023-04-11T05:12:26.288Z,20.07
2023-04-11T05:13:26.228Z,20.07
2023-04-11T05:14:26.207Z,20.07
2023-04-11T05:15:26.212Z,20.07
2023-04-11T05:16:26.219Z,20.07
2023-04-11T05:17:26.236Z,20.08
2023-04-11T05:18:26.173Z,20.08
2023-04-11T05:19:26.147Z,20.09
2023-04-11T05:20:26.146Z,20.09
2023-04-11T05:21:26.123Z,20.11
2023-04-11T05:22:26.148Z,20.11
2023-04-11T05:23:26.087Z,20.13
2023-04-11T05:24:26.076Z,20.13
2023-04-11T05:25:26.085Z,20.18
2023-04-11T05:26:26.131Z,20.23
2023-04-11T05:27:26.044Z,20.31
2023-04-11T05:28:26.038Z,20.40
2023-04-11T05:29:25.995Z,20.48
2023-04-11T05:30:26.111Z,20.55
2023-04-11T05:31:25.972Z,20.62
2023-04-11T05:32:26.070Z,20.69
2023-04-11T05:33:26.015Z,20.76
2023-04-11T05:34:26.042Z,20.82
2023-04-11T05:35:26.067Z,20.89
2023-04-11T05:36:26.080Z,20.95
2023-04-11T05:37:26.134Z,21.01
2023-04-11T05:38:26.117Z,21.07
2023-04-11T05:39:26.125Z,21.11
2023-04-11T05:40:26.118Z,21.16
2023-04-11T05:41:26.126Z,21.21
2023-04-11T05:42:26.127Z,21.26
2023-04-11T05:43:26.102Z,21.30
2023-04-11T05:44:26.095Z,21.34
2023-04-11T05:45:26.715Z,21.38
2023-04-11T05:46:26.065Z,21.41
2023-04-11T05:47:26.117Z,21.44
2023-04-11T05:48:26.010Z,21.47
2023-04-11T05:49:26.016Z,21.52
2023-04-11T05:50:25.952Z,21.56
2023-04-11T05:51:25.923Z,21.60
2023-04-11T05:52:25.890Z,21.64
2023-04-11T05:53:25.847Z,21.67
2023-04-11T05:54:25.808Z,21.70
2023-04-11T05:55:25.764Z,21.73
2023-04-11T05:56:25.734Z,21.76
2023-04-11T05:57:26.671Z,21.78
2023-04-11T05:58:25.645Z,21.79
2023-04-11T05:59:27.645Z,21.81
2023-04-11T06:00:25.536Z,21.83
2023-04-11T06:01:25.501Z,21.86
2023-04-11T06:02:25.513Z,21.88
2023-04-11T06:03:25.484Z,21.90
2023-04-11T06:04:25.585Z,21.91
2023-04-11T06:05:26.310Z,21.92
2023-04-11T06:06:25.276Z,21.94
2023-04-11T06:07:25.209Z,21.97
2023-04-11T06:08:25.173Z,21.98
2023-04-11T06:09:25.117Z,22.00
2023-04-11T06:10:25.049Z,22.01
2023-04-11T06:11:26.836Z,22.02
2023-04-11T06:12:24.951Z,22.03
2023-04-11T06:13:24.907Z,22.05
2023-04-11T06:14:24.877Z,22.06
2023-04-11T06:15:24.890Z,22.07
2023-04-11T06:16:24.955Z,22.08
2023-04-11T06:17:24.958Z,22.11
2023-04-11T06:18:24.937Z,22.15
2023-04-11T06:19:24.965Z,22.12
2023-04-11T06:20:24.987Z,22.10
2023-04-11T06:21:24.954Z,22.09
2023-04-11T06:22:24.947Z,22.08
2023-04-11T06:23:24.914Z,22.06
2023-04-11T06:24:24.850Z,22.01
2023-04-11T06:25:24.806Z,21.96
2023-04-11T06:26:24.749Z,21.91
2023-04-11T06:27:24.710Z,21.86
2023-04-11T06:28:24.681Z,21.82
2023-04-11T06:29:24.668Z,21.76
2023-04-11T06:30:24.621Z,21.71
2023-04-11T06:31:24.625Z,21.67
2023-04-11T06:32:24.588Z,21.63
2023-04-11T06:33:24.547Z,21.60
2023-04-11T06:34:24.520Z,21.55
2023-04-11T06:35:24.603Z,21.52
2023-04-11T06:36:24.527Z,21.48
2023-04-11T06:37:24.484Z,21.45
2023-04-11T06:38:24.482Z,21.41
2023-04-11T06:39:25.269Z,21.38
2023-04-11T06:40:24.469Z,21.35
2023-04-11T06:41:24.569Z,21.32
2023-04-11T06:42:24.476Z,21.30
2023-04-11T06:43:24.485Z,21.28
2023-04-11T06:44:24.542Z,21.26
2023-04-11T06:45:24.488Z,21.23
2023-04-11T06:46:24.516Z,21.22
2023-04-11T06:47:24.521Z,21.21
2023-04-11T06:48:24.497Z,21.19
2023-04-11T06:49:24.603Z,21.18
2023-04-11T06:50:24.522Z,21.16
2023-04-11T06:51:24.533Z,21.16
2023-04-11T06:52:25.876Z,21.14
2023-04-11T06:53:24.501Z,21.13
2023-04-11T06:54:24.454Z,21.12
2023-04-11T06:55:24.413Z,21.11
2023-04-11T06:56:24.366Z,21.10
2023-04-11T06:57:24.337Z,21.09
2023-04-11T06:58:24.296Z,21.08
2023-04-11T06:59:24.905Z,21.07
2023-04-11T07:00:24.208Z,21.06
2023-04-11T07:01:24.211Z,21.05
2023-04-11T07:02:24.399Z,21.04
2023-04-11T07:03:24.209Z,21.03
2023-04-11T07:04:24.088Z,21.03
2023-04-11T07:05:24.009Z,21.02
2023-04-11T07:06:23.961Z,21.01
2023-04-11T07:07:23.903Z,21.01
2023-04-11T07:08:23.874Z,21.00
2023-04-11T07:09:23.821Z,20.99
2023-04-11T07:10:23.840Z,20.98
2023-04-11T07:11:23.744Z,20.98
2023-04-11T07:12:23.724Z,20.97
2023-04-11T07:13:23.674Z,20.97
2023-04-11T07:14:23.621Z,20.97
2023-04-11T07:15:23.612Z,20.96
2023-04-11T07:16:23.579Z,20.96
2023-04-11T07:17:23.607Z,20.95
2023-04-11T07:18:23.483Z,20.94
2023-04-11T07:19:23.510Z,20.94
2023-04-11T07:20:23.543Z,20.96
2023-04-11T07:21:23.549Z,21.00
2023-04-11T07:22:23.549Z,21.03
2023-04-11T07:23:23.819Z,21.07
2023-04-11T07:24:23.574Z,21.12
2023-04-11T07:25:23.582Z,21.17
2023-04-11T07:26:23.591Z,21.23
2023-04-11T07:27:23.637Z,21.30
2023-04-11T07:28:23.574Z,21.36
2023-04-11T07:29:23.562Z,21.43
2023-04-11T07:30:23.530Z,21.49
2023-04-11T07:31:23.666Z,21.54
2023-04-11T07:32:23.499Z,21.59
2023-04-11T07:33:23.463Z,21.63
2023-04-11T07:34:23.384Z,21.68
2023-04-11T07:35:23.379Z,21.71
2023-04-11T07:36:23.313Z,21.75
2023-04-11T07:37:23.265Z,21.77
2023-04-11T07:38:23.251Z,21.79
2023-04-11T07:39:23.257Z,21.82
2023-04-11T07:40:23.204Z,21.85
2023-04-11T07:41:23.167Z,21.87
2023-04-11T07:42:23.113Z,21.89
2023-04-11T07:43:23.074Z,21.92
2023-04-11T07:44:24.016Z,21.94
2023-04-11T07:45:23.021Z,21.97
2023-04-11T07:46:22.962Z,21.98
2023-04-11T07:47:22.898Z,21.96
2023-04-11T07:48:22.847Z,21.93
2023-04-11T07:49:22.798Z,21.89
2023-04-11T07:50:23.331Z,21.87
2023-04-11T07:51:22.695Z,21.84
2023-04-11T07:52:22.662Z,21.81
2023-04-11T07:53:22.624Z,21.77
2023-04-11T07:54:22.595Z,21.76
2023-04-11T07:55:22.576Z,21.77
2023-04-11T07:56:22.525Z,21.77
2023-04-11T07:57:22.484Z,21.79
2023-04-11T07:58:22.487Z,21.80
2023-04-11T07:59:22.402Z,21.83
2023-04-11T08:00:22.368Z,21.86
2023-04-11T08:01:22.319Z,21.88
2023-04-11T08:02:22.450Z,21.91
2023-04-11T08:03:22.377Z,21.94
2023-04-11T08:04:22.374Z,21.97
2023-04-11T08:05:22.296Z,22.00
2023-04-11T08:06:22.135Z,22.01
2023-04-11T08:07:22.063Z,22.03
2023-04-11T08:08:22.065Z,22.05
2023-04-11T08:09:22.082Z,22.08
2023-04-11T08:10:33.048Z,22.13
2023-04-11T08:11:22.054Z,22.15
2023-04-11T08:12:22.016Z,22.17
2023-04-11T08:13:21.963Z,22.18
2023-04-11T08:14:24.866Z,22.18
2023-04-11T08:15:21.876Z,22.17
2023-04-11T08:16:21.862Z,22.08
2023-04-11T08:17:28.309Z,22.01
2023-04-11T08:18:22.852Z,21.93
2023-04-11T08:19:22.856Z,21.87
2023-04-11T08:20:21.856Z,21.84
2023-04-11T08:21:21.863Z,21.82
2023-04-11T08:22:21.904Z,21.80
2023-04-11T08:23:21.852Z,21.79
2023-04-11T08:24:21.818Z,21.79
2023-04-11T08:25:22.318Z,21.78
2023-04-11T08:26:21.749Z,21.77
2023-04-11T08:27:22.310Z,21.79
2023-04-11T08:28:21.672Z,21.82
2023-04-11T08:29:21.634Z,21.83
2023-04-11T08:30:21.589Z,21.86
2023-04-11T08:31:21.725Z,21.88
2023-04-11T08:32:21.542Z,21.90
2023-04-11T08:33:21.510Z,21.93
2023-04-11T08:34:21.504Z,21.97
2023-04-11T08:35:21.511Z,21.99
2023-04-11T08:36:21.515Z,22.01
2023-04-11T08:37:21.526Z,22.05
2023-04-11T08:38:21.570Z,22.08
2023-04-11T08:39:21.566Z,22.10
2023-04-11T08:40:22.280Z,22.14
2023-04-11T08:41:21.618Z,22.17
2023-04-11T08:42:21.621Z,22.19
2023-04-11T08:43:21.863Z,22.23
2023-04-11T08:44:21.641Z,22.26
2023-04-11T08:45:21.653Z,22.28
2023-04-11T08:46:21.699Z,22.30
2023-04-11T08:47:21.716Z,22.33
2023-04-11T08:48:21.669Z,22.36
2023-04-11T08:49:21.695Z,22.39
2023-04-11T08:50:21.688Z,22.41
2023-04-11T08:51:21.679Z,22.43
2023-04-11T08:52:21.670Z,22.46
2023-04-11T08:53:22.628Z,22.48
2023-04-11T08:54:21.578Z,22.50
2023-04-11T08:55:21.531Z,22.53
2023-04-11T08:56:21.471Z,22.54
2023-04-11T08:57:21.419Z,22.56
2023-04-11T08:58:21.381Z,22.58
2023-04-11T08:59:21.321Z,22.60
2023-04-11T09:00:21.265Z,22.62
2023-04-11T09:01:21.311Z,22.62
2023-04-11T09:02:21.304Z,22.63
2023-04-11T09:03:21.281Z,22.64
2023-04-11T09:04:21.071Z,22.66
2023-04-11T09:05:21.002Z,22.67
2023-04-11T09:06:20.953Z,22.67
2023-04-11T09:07:20.891Z,22.68
2023-04-11T09:08:20.828Z,22.71
2023-04-11T09:09:20.814Z,22.73
2023-04-11T09:10:20.771Z,22.72
2023-04-11T09:11:20.742Z,22.72
2023-04-11T09:12:20.713Z,22.73
2023-04-11T09:13:20.686Z,22.74
2023-04-11T09:14:20.677Z,22.74
2023-04-11T09:15:20.614Z,22.74
2023-04-11T09:16:20.661Z,22.74
2023-04-11T09:17:20.547Z,22.67
2023-04-11T09:18:20.526Z,22.60
2023-04-11T09:19:20.543Z,22.55
2023-04-11T09:20:20.520Z,22.52
2023-04-11T09:21:20.501Z,22.49
2023-04-11T09:22:20.504Z,22.46
2023-04-11T09:23:20.427Z,22.41
2023-04-11T09:24:20.390Z,22.41
2023-04-11T09:25:20.388Z,22.41
2023-04-11T09:26:20.758Z,22.42
2023-04-11T09:27:20.789Z,22.43
2023-04-11T09:28:20.193Z,22.46
2023-04-11T09:29:20.140Z,22.48
2023-04-11T09:30:20.086Z,22.50
2023-04-11T09:31:20.144Z,22.54
2023-04-11T09:32:20.012Z,22.56
2023-04-11T09:33:19.963Z,22.59
2023-04-11T09:34:19.894Z,22.60
2023-04-11T09:35:19.857Z,22.63
2023-04-11T09:36:19.881Z,22.64
2023-04-11T09:37:19.827Z,22.67
2023-04-11T09:38:19.783Z,22.70
2023-04-11T09:39:19.751Z,22.74
2023-04-11T09:40:19.735Z,22.78
2023-04-11T09:41:19.686Z,22.82
2023-04-11T09:42:19.656Z,22.84
2023-04-11T09:43:20.483Z,22.88
2023-04-11T09:44:19.566Z,22.91
2023-04-11T09:45:19.526Z,22.93
2023-04-11T09:46:19.486Z,22.94
2023-04-11T09:47:19.415Z,22.98
2023-04-11T09:48:19.359Z,22.99
2023-04-11T09:49:19.301Z,23.02
2023-04-11T09:50:19.244Z,23.03
2023-04-11T09:51:34.418Z,23.04
2023-04-11T09:52:20.130Z,23.04
2023-04-11T09:53:19.067Z,23.04
2023-04-11T09:54:19.018Z,23.04
2023-04-11T09:55:19.013Z,23.05
2023-04-11T09:56:18.906Z,23.05
2023-04-11T09:57:18.840Z,23.06
2023-04-11T09:58:18.790Z,23.07
2023-04-11T09:59:18.729Z,23.09
2023-04-11T10:00:18.671Z,23.10
2023-04-11T10:01:18.632Z,23.10
2023-04-11T10:02:18.586Z,23.11
2023-04-11T10:03:18.651Z,23.12
2023-04-11T10:04:18.452Z,23.14
2023-04-11T10:05:18.337Z,23.14
2023-04-11T10:06:18.286Z,23.15
2023-04-11T10:07:18.818Z,23.17
2023-04-11T10:08:18.162Z,23.19
2023-04-11T10:09:18.260Z,23.20
2023-04-11T10:10:18.041Z,23.20
2023-04-11T10:11:18.003Z,23.21
2023-04-11T10:12:17.966Z,23.21
2023-04-11T10:13:17.935Z,23.20
2023-04-11T10:14:17.905Z,23.16
2023-04-11T10:15:17.846Z,23.13
2023-04-11T10:16:17.813Z,23.09
2023-04-11T10:17:20.472Z,23.03
2023-04-11T10:18:17.684Z,22.98
2023-04-11T10:19:17.627Z,22.94
2023-04-11T10:20:17.569Z,22.88
2023-04-11T10:21:17.511Z,22.82
2023-04-11T10:22:17.471Z,22.78
2023-04-11T10:23:18.421Z,22.72
2023-04-11T10:24:18.009Z,22.68
2023-04-11T10:25:17.901Z,22.65
2023-04-11T10:26:17.820Z,22.61
2023-04-11T10:27:18.311Z,22.58
2023-04-11T10:28:17.137Z,22.54
2023-04-11T10:29:17.076Z,22.52
2023-04-11T10:30:17.051Z,22.49
2023-04-11T10:31:17.010Z,22.47
2023-04-11T10:32:16.962Z,22.43
2023-04-11T10:33:16.888Z,22.41
2023-04-11T10:34:16.841Z,22.38
2023-04-11T10:35:16.784Z,22.35
2023-04-11T10:36:16.750Z,22.33
2023-04-11T10:37:16.683Z,22.31
2023-04-11T10:38:16.652Z,22.29
2023-04-11T10:39:16.587Z,22.26
2023-04-11T10:40:16.557Z,22.25
2023-04-11T10:41:16.563Z,22.24
2023-04-11T10:42:16.563Z,22.24
2023-04-11T10:43:16.551Z,22.23
2023-04-11T10:44:16.561Z,22.22
2023-04-11T10:45:16.558Z,22.21
2023-04-11T10:46:16.559Z,22.19
2023-04-11T10:47:16.653Z,22.18
2023-04-11T10:48:16.556Z,22.17
2023-04-11T10:49:16.560Z,22.15
2023-04-11T10:50:16.562Z,22.15
2023-04-11T10:51:16.574Z,22.14
2023-04-11T10:52:16.606Z,22.14
2023-04-11T10:53:16.582Z,22.12
2023-04-11T10:54:16.603Z,22.11
2023-04-11T10:55:16.607Z,22.09
2023-04-11T10:56:16.672Z,22.08
2023-04-11T10:57:16.577Z,22.06
2023-04-11T10:58:16.527Z,22.06
2023-04-11T10:59:16.468Z,22.05
2023-04-11T11:00:16.418Z,22.04
2023-04-11T11:01:25.973Z,22.03
2023-04-11T11:02:17.482Z,22.02
2023-04-11T11:03:16.368Z,22.02
2023-04-11T11:04:16.394Z,22.01
2023-04-11T11:05:16.163Z,22.00
2023-04-11T11:06:16.114Z,22.00
2023-04-11T11:07:16.054Z,22.01
2023-04-11T11:08:16.005Z,22.00
2023-04-11T11:09:15.944Z,21.98
2023-04-11T11:10:15.935Z,21.97
2023-04-11T11:11:15.944Z,21.98
2023-04-11T11:12:15.961Z,21.97
2023-04-11T11:13:15.973Z,21.97
2023-04-11T11:14:15.995Z,21.97
2023-04-11T11:15:16.010Z,21.97
2023-04-11T11:16:16.059Z,21.98
2023-04-11T11:17:16.091Z,21.98
2023-04-11T11:18:16.067Z,21.97
2023-04-11T11:19:16.080Z,21.98
2023-04-11T11:20:16.108Z,21.98
2023-04-11T11:21:24.563Z,21.98
2023-04-11T11:22:17.092Z,21.99
2023-04-11T11:23:16.059Z,21.99
2023-04-11T11:24:15.985Z,22.00
2023-04-11T11:25:15.981Z,22.00
2023-04-11T11:26:15.882Z,22.01
2023-04-11T11:27:15.832Z,22.01
2023-04-11T11:28:15.788Z,22.01
2023-04-11T11:29:15.744Z,22.01
2023-04-11T11:30:15.752Z,22.00
2023-04-11T11:31:15.744Z,22.00
2023-04-11T11:32:15.752Z,22.01
2023-04-11T11:33:15.842Z,22.01
2023-04-11T11:35:16.736Z,22.00
2023-04-11T11:36:15.734Z,22.00
2023-04-11T11:37:15.641Z,22.00
2023-04-11T11:38:15.599Z,22.00
2023-04-11T11:39:15.570Z,22.01
2023-04-11T11:40:15.499Z,22.01
2023-04-11T11:41:15.459Z,22.01
2023-04-11T11:42:15.406Z,22.01
2023-04-11T11:43:15.377Z,22.02
2023-04-11T11:44:15.396Z,22.01
2023-04-11T11:45:15.420Z,22.01
2023-04-11T11:46:15.435Z,22.00
2023-04-11T11:48:15.463Z,21.99
2023-04-11T11:49:15.462Z,21.99
2023-04-11T11:50:15.487Z,21.99
2023-04-11T11:51:15.503Z,21.99
2023-04-11T11:52:15.530Z,21.99
2023-04-11T11:53:15.543Z,21.99
2023-04-11T11:54:15.553Z,21.99
2023-04-11T11:55:15.558Z,21.99
2023-04-11T11:56:15.586Z,21.99
2023-04-11T11:57:15.588Z,21.99
2023-04-11T11:58:15.628Z,21.99
2023-04-11T11:59:15.644Z,21.99
2023-04-11T12:00:15.647Z,21.98
2023-04-11T12:01:15.694Z,21.98
2023-04-11T12:02:15.734Z,21.98
2023-04-11T12:03:15.803Z,21.98
2023-04-11T12:04:15.921Z,21.98
2023-04-11T12:05:15.808Z,21.99
2023-04-11T12:06:15.732Z,21.99
2023-04-11T12:07:15.783Z,21.99
2023-04-11T12:08:15.794Z,21.99
2023-04-11T12:09:15.776Z,21.98
2023-04-11T12:10:15.825Z,21.98
2023-04-11T12:11:15.814Z,21.99
2023-04-11T12:12:15.820Z,21.98
2023-04-11T12:13:15.842Z,21.98
2023-04-11T12:14:15.882Z,21.98
2023-04-11T12:15:15.873Z,21.98
2023-04-11T12:16:15.928Z,21.98
2023-04-11T12:17:15.978Z,21.97
2023-04-11T12:18:15.998Z,21.97
2023-04-11T12:19:15.925Z,21.98
2023-04-11T12:20:15.975Z,21.98
2023-04-11T12:21:15.971Z,21.97
2023-04-11T12:22:15.988Z,21.97
2023-04-11T12:23:16.012Z,21.97
2023-04-11T12:24:16.010Z,21.98
2023-04-11T12:25:16.025Z,21.98
2023-04-11T12:26:16.048Z,21.97
2023-04-11T12:27:16.052Z,21.97
2023-04-11T12:28:16.072Z,21.96
2023-04-11T12:29:16.080Z,21.96
2023-04-11T12:30:16.105Z,21.95
2023-04-11T12:31:16.936Z,21.95
2023-04-11T12:32:16.100Z,21.94
2023-04-11T12:33:16.109Z,21.94
2023-04-11T12:34:16.135Z,21.94
2023-04-11T12:35:16.148Z,21.95
2023-04-11T12:36:16.175Z,21.96
2023-04-11T12:37:16.188Z,21.95
2023-04-11T12:38:17.861Z,21.95
2023-04-11T12:39:16.946Z,21.95
2023-04-11T12:40:16.234Z,21.94
2023-04-11T12:41:31.561Z,21.94
2023-04-11T12:42:20.988Z,21.93
2023-04-11T12:43:17.138Z,21.92
2023-04-11T12:44:16.108Z,21.91
2023-04-11T12:45:16.036Z,21.91
2023-04-11T12:46:16.023Z,21.91
2023-04-11T12:47:15.941Z,21.90
2023-04-11T12:48:15.898Z,21.89
2023-04-11T12:49:15.856Z,21.89
2023-04-11T12:50:15.811Z,21.88
2023-04-11T12:51:15.744Z,21.88
2023-04-11T12:52:15.737Z,21.87
2023-04-11T12:53:15.635Z,21.87
2023-04-11T12:54:15.587Z,21.86